Time;durP1;ratioP1;P1;durP2;ratioP2;P2;SDS_P1;SDS_P2;PMS_P1;PMS_P2;Temp;Humidity;BMP_temperature;BMP_pressure;BME280_temperature;BME280_humidity;BME280_pressure;Samples;Min_cycle;Max_cycle;Signal;HPM_P1;HPM_P2
2021/12/08 00:02:15;;;;;;;13.43;2.67;;;5.40;97.90;;;;;;5016529;28;20052;-83
2021/12/08 00:04:41;;;;;;;14.77;3.00;;;5.40;98.00;;;;;;5017123;28;20466;-83
2021/12/08 00:07:08;;;;;;;8.30;2.83;;;5.40;98.00;;;;;;5008946;28;20026;-83
2021/12/08 00:14:54;;;;;;;8.37;2.97;;;5.40;98.20;;;;;;5015900;28;20522;-81
2021/12/08 00:17:20;;;;;;;9.47;2.80;;;5.30;98.20;;;;;;4998511;28;20014;-82
2021/12/08 00:19:46;;;;;;;9.07;2.57;;;5.40;98.40;;;;;;5015170;28;20033;-81
2021/12/08 00:22:12;;;;;;;9.07;3.30;;;5.30;98.50;;;;;;5014454;28;20029;-82
2021/12/08 00:24:37;;;;;;;8.50;2.90;;;5.20;98.60;;;;;;5017619;28;20025;-82
2021/12/08 00:27:03;;;;;;;7.33;2.57;;;5.30;98.80;;;;;;5017802;28;20023;-82
2021/12/08 00:29:29;;;;;;;12.20;3.40;;;5.30;98.80;;;;;;5017691;28;20017;-82
2021/12/08 00:31:56;;;;;;;7.50;2.60;;;5.30;98.90;;;;;;5017016;28;20075;-82
2021/12/08 00:34:22;;;;;;;8.93;3.17;;;5.30;99.10;;;;;;4999894;28;20029;-81
2021/12/08 00:36:51;;;;;;;12.40;2.47;;;5.30;99.20;;;;;;4997130;28;20492;-82
2021/12/08 00:39:17;;;;;;;7.57;2.90;;;5.30;99.20;;;;;;4982028;28;20037;-82
2021/12/08 00:41:42;;;;;;;6.30;2.70;;;5.30;99.40;;;;;;4980469;28;20057;-82
2021/12/08 00:44:09;;;;;;;10.83;3.27;;;5.30;99.50;;;;;;4980697;28;20025;-82
2021/12/08 00:46:37;;;;;;;10.30;3.20;;;5.30;99.60;;;;;;4998608;28;20030;-84
2021/12/08 00:49:04;;;;;;;9.43;3.13;;;5.30;99.70;;;;;;5033925;28;20017;-83
2021/12/08 00:51:30;;;;;;;12.17;3.87;;;5.30;99.80;;;;;;5001299;28;20022;-83
2021/12/08 00:53:56;;;;;;;7.17;3.00;;;5.30;99.80;;;;;;5000735;28;20434;-83
2021/12/08 00:56:22;;;;;;;9.00;3.10;;;5.30;99.80;;;;;;5015768;28;20100;-83
2021/12/08 00:58:48;;;;;;;8.53;2.80;;;5.30;99.90;;;;;;4997780;28;20053;-83
2021/12/08 01:01:15;;;;;;;10.10;2.73;;;5.30;99.90;;;;;;4997901;28;20482;-83
2021/12/08 01:03:41;;;;;;;9.50;3.20;;;5.30;99.90;;;;;;5000743;28;20049;-84
2021/12/08 01:06:07;;;;;;;7.57;2.73;;;5.30;99.90;;;;;;5014630;28;20026;-83
2021/12/08 01:08:34;;;;;;;8.93;2.60;;;5.30;99.90;;;;;;5014236;28;20033;-83
2021/12/08 01:11:13;;;;;;;7.77;3.10;;;5.30;99.90;;;;;;4980193;28;20022;-83
2021/12/08 01:13:39;;;;;;;7.10;3.00;;;5.40;99.90;;;;;;5018161;28;20029;-84
2021/12/08 01:16:05;;;;;;;8.93;3.33;;;5.40;99.90;;;;;;5024596;28;20167;-83
2021/12/08 01:18:31;;;;;;;7.37;2.73;;;5.40;99.90;;;;;;4980431;28;20526;-83
2021/12/08 01:21:01;;;;;;;7.93;2.57;;;5.40;99.90;;;;;;5013373;28;20068;-83
2021/12/08 01:23:27;;;;;;;6.97;2.60;;;5.40;99.90;;;;;;4998546;28;21543;-82
2021/12/08 01:25:54;;;;;;;8.47;2.60;;;5.50;99.90;;;;;;5015817;28;20065;-83
2021/12/08 01:28:22;;;;;;;8.27;2.30;;;5.50;99.90;;;;;;5033597;28;20634;-83
2021/12/08 01:30:49;;;;;;;6.70;2.80;;;5.60;99.90;;;;;;5015513;28;20022;-83
2021/12/08 01:33:17;;;;;;;6.63;2.27;;;5.50;99.90;;;;;;4996001;28;20370;-82
2021/12/08 01:35:43;;;;;;;8.47;3.83;;;5.60;99.90;;;;;;5015853;28;20426;-82
2021/12/08 01:38:08;;;;;;;8.07;2.07;;;5.60;99.90;;;;;;5033797;28;20059;-82
2021/12/08 01:40:34;;;;;;;4.47;2.00;;;5.50;99.90;;;;;;5015668;28;20029;-82
2021/12/08 01:43:02;;;;;;;6.47;2.60;;;5.70;99.90;;;;;;4985123;28;20029;-82
2021/12/08 01:48:18;;;;;;;6.03;2.63;;;5.80;99.90;;;;;;5013481;28;20073;-83
2021/12/08 01:50:48;;;;;;;5.17;2.23;;;5.80;99.90;;;;;;5013404;28;20029;-83
2021/12/08 01:53:17;;;;;;;6.67;2.60;;;5.90;99.90;;;;;;5012467;28;20021;-83
2021/12/08 01:55:44;;;;;;;7.70;2.17;;;5.90;99.90;;;;;;5015739;28;20413;-83
2021/12/08 01:58:11;;;;;;;5.00;2.10;;;5.90;99.90;;;;;;5033247;28;20485;-83
2021/12/08 02:00:50;;;;;;;7.17;2.30;;;5.90;99.90;;;;;;5024798;28;20101;-82
2021/12/08 02:03:18;;;;;;;7.87;2.57;;;5.90;99.90;;;;;;4995930;28;20025;-83
2021/12/08 02:05:44;;;;;;;6.23;2.43;;;6.00;99.90;;;;;;4995722;28;20446;-82
2021/12/08 02:08:10;;;;;;;6.10;2.33;;;6.00;99.90;;;;;;4995691;28;20025;-82
2021/12/08 02:10:37;;;;;;;7.17;2.60;;;6.00;99.90;;;;;;5014443;28;20018;-83
2021/12/08 02:13:04;;;;;;;6.80;2.87;;;6.10;99.90;;;;;;4996035;28;20036;-82
2021/12/08 02:15:30;;;;;;;5.83;2.53;;;6.10;99.90;;;;;;4995707;28;20042;-82
2021/12/08 02:17:57;;;;;;;6.00;2.17;;;6.10;99.90;;;;;;4979367;28;20030;-82
2021/12/08 02:20:25;;;;;;;5.70;2.33;;;6.10;99.90;;;;;;4985011;28;20450;-82
2021/12/08 02:22:51;;;;;;;6.63;2.43;;;6.10;99.90;;;;;;5010185;28;20026;-81
2021/12/08 02:25:20;;;;;;;5.90;2.60;;;6.20;99.90;;;;;;5015601;28;20014;-81
2021/12/08 02:27:47;;;;;;;8.73;2.67;;;6.20;99.90;;;;;;5037236;28;20029;-82
2021/12/08 02:30:43;;;;;;;5.93;2.27;;;6.20;99.90;;;;;;5012734;28;20374;-81
2021/12/08 02:49:20;;;;;;;4.90;1.60;;;6.30;99.90;;;;;;5018646;28;20033;-84
2021/12/08 02:51:47;;;;;;;5.87;1.83;;;6.30;99.90;;;;;;5016633;28;20034;-82
2021/12/08 02:54:12;;;;;;;8.10;2.90;;;6.30;99.90;;;;;;4999368;28;20113;-82
2021/12/08 02:56:38;;;;;;;6.53;1.70;;;6.30;99.90;;;;;;4998757;28;20138;-82
2021/12/08 02:59:05;;;;;;;6.23;1.80;;;6.30;99.90;;;;;;5014714;28;20061;-82
2021/12/08 03:01:31;;;;;;;6.27;1.80;;;6.30;99.90;;;;;;5016918;28;20489;-82
2021/12/08 03:03:57;;;;;;;4.10;1.60;;;6.40;99.90;;;;;;4999063;28;20029;-83
2021/12/08 03:06:23;;;;;;;7.13;1.80;;;6.30;99.90;;;;;;5016457;28;20022;-82
2021/12/08 03:08:49;;;;;;;6.50;1.70;;;6.30;99.90;;;;;;5016655;28;20037;-82
2021/12/08 03:11:16;;;;;;;6.23;1.83;;;6.20;99.90;;;;;;5016662;28;20109;-82
2021/12/08 03:14:17;;;;;;;5.77;1.63;;;6.20;99.90;;;;;;5016199;28;20033;-83
2021/12/08 03:16:47;;;;;;;4.77;1.50;;;6.30;99.90;;;;;;5015736;28;20042;-81
2021/12/08 03:19:14;;;;;;;5.30;1.80;;;6.20;99.90;;;;;;5018445;28;20028;-81
2021/12/08 03:21:40;;;;;;;6.83;2.00;;;6.10;99.90;;;;;;5018690;28;20037;-81
2021/12/08 03:26:53;;;;;;;5.83;1.63;;;6.10;99.90;;;;;;5036178;28;20116;-81
2021/12/08 03:30:13;;;;;;;8.27;1.70;;;6.10;99.90;;;;;;4996369;28;20021;-81
2021/12/08 03:32:10;;;;;;;5.00;1.77;;;6.10;99.90;;;;;;5006295;28;20034;-81
2021/12/08 03:34:40;;;;;;;5.10;2.10;;;6.10;99.90;;;;;;5002323;28;20026;-81
2021/12/08 03:37:07;;;;;;;7.97;1.83;;;6.20;99.90;;;;;;5000734;28;20108;-81
2021/12/08 03:39:34;;;;;;;6.07;2.23;;;6.20;99.90;;;;;;5010565;28;20026;-81
2021/12/08 03:42:01;;;;;;;6.73;1.60;;;6.20;99.90;;;;;;4981790;28;20118;-81
2021/12/08 03:44:27;;;;;;;6.23;1.60;;;6.30;99.90;;;;;;4981965;28;20036;-81
2021/12/08 03:47:01;;;;;;;6.03;1.77;;;6.30;99.90;;;;;;4997984;28;20365;-81
2021/12/08 03:49:27;;;;;;;;;;;6.30;99.90;;;;;;5024718;28;20018;-81
2021/12/08 03:52:00;;;;;;;5.70;1.20;;;6.40;99.90;;;;;;5018025;28;19905;-81
2021/12/08 03:54:27;;;;;;;4.50;1.63;;;6.40;99.90;;;;;;5017689;28;20022;-81
2021/12/08 03:56:52;;;;;;;6.00;1.30;;;6.50;99.90;;;;;;5017582;28;20469;-81
2021/12/08 03:59:18;;;;;;;8.23;1.80;;;6.50;99.90;;;;;;5009515;28;20053;-81
2021/12/08 04:01:44;;;;;;;7.63;1.97;;;6.60;99.90;;;;;;5015282;28;20033;-82
2021/12/08 04:04:11;;;;;;;3.43;1.60;;;6.60;99.90;;;;;;4998273;28;20030;-81
2021/12/08 04:06:46;;;;;;;5.90;1.20;;;6.70;99.90;;;;;;4998228;28;20413;-81
2021/12/08 04:09:18;;;;;;;11.67;1.80;;;6.80;99.90;;;;;;5006394;28;20018;-81
2021/12/08 04:11:45;;;;;;;9.10;1.83;;;6.70;99.90;;;;;;5016810;28;20026;-81
2021/12/08 04:14:16;;;;;;;6.70;1.60;;;6.80;99.90;;;;;;5017017;28;20022;-82
2021/12/08 04:16:50;;;;;;;9.77;1.60;;;6.80;99.90;;;;;;5017110;28;20029;-81
2021/12/08 04:19:17;;;;;;;6.40;1.53;;;6.80;99.90;;;;;;5007505;28;20022;-81
2021/12/08 04:21:48;;;;;;;5.93;1.20;;;6.90;99.90;;;;;;4981278;28;20381;-82
2021/12/08 04:24:14;;;;;;;5.30;1.27;;;6.80;99.90;;;;;;4997210;28;20053;-81
2021/12/08 04:26:55;;;;;;;6.37;1.10;;;6.90;99.90;;;;;;5029609;28;20119;-82
2021/12/08 04:29:29;;;;;;;7.30;1.40;;;6.90;99.90;;;;;;5015122;28;20032;-84
2021/12/08 04:31:56;;;;;;;8.73;1.73;;;6.90;99.90;;;;;;5017328;28;20013;-84
2021/12/08 04:34:27;;;;;;;6.60;1.30;;;7.00;99.90;;;;;;5035621;28;20025;-83
2021/12/08 04:37:00;;;;;;;4.83;1.43;;;7.00;99.90;;;;;;5016542;28;20374;-82
2021/12/08 04:42:20;;;;;;;5.43;1.10;;;7.00;99.90;;;;;;5014700;28;20422;-82
2021/12/08 04:44:53;;;;;;;4.53;1.30;;;7.00;99.80;;;;;;4981298;28;20025;-81
2021/12/08 04:52:51;;;;;;;;;;;7.00;99.10;;;;;;5034821;28;20037;-81
2021/12/08 05:09:09;;;;;;;5.23;1.30;;;6.70;98.50;;;;;;5024795;28;20033;-84
2021/12/08 05:11:38;;;;;;;7.83;1.13;;;6.70;98.40;;;;;;5016777;28;20028;-84
2021/12/08 05:14:17;;;;;;;5.67;1.30;;;6.60;98.40;;;;;;5034827;28;20100;-84
2021/12/08 05:16:52;;;;;;;7.80;1.00;;;6.60;98.40;;;;;;5016100;28;20573;-83
2021/12/08 05:19:21;;;;;;;6.93;1.13;;;6.50;98.20;;;;;;5021048;28;20018;-83
2021/12/08 05:22:19;;;;;;;6.00;1.33;;;6.50;98.20;;;;;;5015098;28;20036;-84
2021/12/08 05:24:48;;;;;;;4.27;1.00;;;6.50;98.30;;;;;;4980461;28;20030;-85
2021/12/08 05:27:16;;;;;;;9.60;1.20;;;6.50;98.30;;;;;;4996432;28;20022;-83
2021/12/08 05:30:13;;;;;;;6.10;1.63;;;6.50;98.30;;;;;;5028698;28;20031;-83
2021/12/08 05:32:39;;;;;;;9.60;1.13;;;6.50;98.30;;;;;;5027816;28;20031;-83
2021/12/08 05:35:08;;;;;;;7.63;1.13;;;6.60;98.30;;;;;;5033742;28;20029;-82
2021/12/08 05:37:34;;;;;;;7.63;1.43;;;6.60;98.30;;;;;;5033725;28;20144;-83
2021/12/08 05:40:00;;;;;;;5.60;1.10;;;6.60;98.30;;;;;;5015733;28;20526;-83
2021/12/08 05:42:32;;;;;;;5.67;1.00;;;6.50;98.30;;;;;;5013955;28;20030;-82
2021/12/08 05:44:59;;;;;;;6.93;1.20;;;6.60;98.30;;;;;;5014284;28;20029;-84
2021/12/08 05:47:28;;;;;;;3.93;0.80;;;6.60;98.20;;;;;;5014501;28;20022;-82
2021/12/08 05:49:54;;;;;;;8.80;1.40;;;6.60;98.10;;;;;;5011753;28;20539;-81
2021/12/08 05:52:21;;;;;;;11.60;1.20;;;6.50;97.90;;;;;;4996809;28;20037;-83
2021/12/08 05:54:49;;;;;;;7.07;0.97;;;6.50;97.80;;;;;;5013404;28;20022;-82
2021/12/08 05:57:23;;;;;;;8.63;1.40;;;6.50;97.70;;;;;;5031189;28;20103;-82
2021/12/08 05:59:52;;;;;;;11.90;2.03;;;6.50;97.60;;;;;;5032311;28;20368;-84
2021/12/08 06:02:27;;;;;;;8.60;1.60;;;6.40;97.60;;;;;;5030608;28;20100;-80
2021/12/08 06:04:52;;;;;;;6.50;0.93;;;6.30;97.60;;;;;;5025891;28;20105;-82
2021/12/08 06:07:21;;;;;;;4.90;0.97;;;6.30;97.60;;;;;;5013526;28;20101;-81
2021/12/08 06:09:48;;;;;;;8.23;1.00;;;6.40;97.70;;;;;;5003804;28;20033;-81
2021/12/08 06:12:14;;;;;;;8.47;1.47;;;6.20;97.60;;;;;;5015363;28;20105;-82
2021/12/08 06:14:40;;;;;;;7.13;1.90;;;6.20;97.60;;;;;;5026638;28;20117;-82
2021/12/08 06:17:13;;;;;;;11.07;1.77;;;6.20;97.60;;;;;;4995821;28;20034;-83
2021/12/08 06:19:41;;;;;;;7.68;1.05;;;6.10;97.60;;;;;;5026092;28;20410;-82
2021/12/08 06:22:09;;;;;;;4.43;1.17;;;6.20;97.50;;;;;;5032757;28;20093;-82
2021/12/08 06:24:35;;;;;;;4.97;0.80;;;6.10;97.40;;;;;;5015318;28;20022;-84
2021/12/08 06:27:01;;;;;;;7.63;1.00;;;6.10;97.40;;;;;;5014913;28;20032;-84
2021/12/08 06:29:27;;;;;;;6.03;0.80;;;6.10;97.40;;;;;;5013734;28;20029;-84
2021/12/08 06:31:56;;;;;;;8.80;1.53;;;6.10;97.40;;;;;;5032794;28;20032;-84
2021/12/08 06:34:22;;;;;;;11.50;1.40;;;6.00;97.30;;;;;;5032841;28;20021;-83
2021/12/08 06:36:53;;;;;;;7.63;0.87;;;6.00;97.30;;;;;;5032805;28;20113;-84
2021/12/08 06:39:27;;;;;;;7.97;0.97;;;6.00;97.30;;;;;;5025970;28;20022;-84
2021/12/08 06:41:58;;;;;;;8.50;1.17;;;6.00;97.10;;;;;;5026387;28;20022;-83
2021/12/08 06:44:30;;;;;;;3.37;0.77;;;6.00;97.10;;;;;;5003419;28;20014;-82
2021/12/08 06:46:59;;;;;;;10.53;1.30;;;6.00;97.10;;;;;;5012799;28;20026;-83
2021/12/08 06:49:25;;;;;;;7.10;1.00;;;6.00;97.00;;;;;;5000704;28;20512;-83
2021/12/08 06:52:00;;;;;;;2.83;0.80;;;6.00;96.90;;;;;;4995348;28;20030;-83
2021/12/08 06:54:33;;;;;;;13.47;1.33;;;6.00;96.90;;;;;;4994563;28;20182;-84
2021/12/08 06:57:11;;;;;;;8.90;1.20;;;6.00;96.90;;;;;;5027065;28;20042;-83
2021/12/08 06:59:51;;;;;;;12.63;1.40;;;6.00;96.80;;;;;;5012655;28;20384;-83
2021/12/08 07:02:34;;;;;;;10.53;1.20;;;5.90;96.80;;;;;;5013174;28;20022;-83
2021/12/08 07:05:13;;;;;;;6.50;1.27;;;5.90;96.80;;;;;;5020237;28;20054;-83
2021/12/08 07:07:41;;;;;;;10.00;1.90;;;5.90;96.80;;;;;;5006548;28;20021;-83
2021/12/08 07:10:21;;;;;;;8.27;1.27;;;5.80;96.80;;;;;;5032521;28;20021;-81
2021/12/08 07:12:51;;;;;;;6.97;0.83;;;5.90;97.10;;;;;;5035061;28;20026;-82
2021/12/08 07:15:50;;;;;;;11.40;1.47;;;5.80;96.80;;;;;;5013925;28;20040;-82
2021/12/08 07:18:25;;;;;;;10.43;1.03;;;5.80;96.80;;;;;;4992741;28;20029;-83
2021/12/08 07:20:56;;;;;;;9.47;1.20;;;5.80;96.80;;;;;;5019921;28;20021;-81
2021/12/08 07:23:24;;;;;;;7.87;1.30;;;5.80;96.80;;;;;;5034464;28;20021;-83
2021/12/08 07:25:53;;;;;;;8.70;1.30;;;5.70;96.80;;;;;;5015392;28;20025;-83
2021/12/08 07:28:21;;;;;;;7.83;1.07;;;5.70;96.80;;;;;;5017293;28;20044;-83
2021/12/08 07:30:51;;;;;;;6.70;1.43;;;5.70;96.70;;;;;;5035968;28;20017;-83
2021/12/08 07:33:17;;;;;;;10.57;1.37;;;5.70;96.60;;;;;;5017852;28;20025;-80
2021/12/08 07:35:50;;;;;;;8.57;1.23;;;5.70;96.60;;;;;;4993241;28;20486;-82
2021/12/08 07:38:21;;;;;;;15.00;1.80;;;5.70;96.60;;;;;;5035478;28;20036;-82
2021/12/08 07:41:13;;;;;;;9.40;1.30;;;5.70;96.60;;;;;;5017924;28;20032;-82
2021/12/08 07:43:43;;;;;;;13.27;1.33;;;5.70;96.50;;;;;;5017507;28;20014;-84
2021/12/08 07:46:24;;;;;;;8.87;1.47;;;5.70;96.50;;;;;;5034880;28;20385;-84
2021/12/08 07:48:58;;;;;;;6.47;1.00;;;5.70;96.50;;;;;;5017164;28;20064;-83
2021/12/08 07:51:34;;;;;;;8.40;1.23;;;5.60;96.50;;;;;;5017929;28;20033;-82
2021/12/08 07:54:02;;;;;;;6.87;1.20;;;5.60;96.50;;;;;;5016777;28;20122;-82
2021/12/08 07:56:28;;;;;;;9.20;1.50;;;5.60;96.50;;;;;;5000317;28;20052;-84
2021/12/08 07:58:59;;;;;;;10.20;1.27;;;5.60;96.60;;;;;;5034902;28;20077;-82
2021/12/08 08:01:29;;;;;;;8.87;1.53;;;5.70;96.60;;;;;;5050960;28;20151;-84
2021/12/08 08:03:55;;;;;;;9.00;1.13;;;5.60;96.60;;;;;;5020289;28;20049;-83
2021/12/08 08:06:30;;;;;;;7.40;1.07;;;5.60;96.60;;;;;;5019619;28;20509;-83
2021/12/08 08:08:59;;;;;;;10.87;1.23;;;5.60;96.70;;;;;;5003690;28;20022;-84
2021/12/08 08:11:31;;;;;;;10.10;1.47;;;5.60;96.60;;;;;;5005026;28;20484;-83
2021/12/08 08:13:58;;;;;;;10.90;1.57;;;5.60;96.70;;;;;;5017366;28;20025;-84
2021/12/08 08:16:27;;;;;;;12.33;1.50;;;5.60;96.70;;;;;;5034199;28;20037;-77
2021/12/08 08:19:01;;;;;;;12.27;1.50;;;5.60;96.70;;;;;;5016714;28;20025;-79
2021/12/08 08:21:31;;;;;;;11.07;1.42;;;5.70;96.80;;;;;;5018819;28;20025;-78
2021/12/08 08:24:00;;;;;;;12.90;2.63;;;5.70;96.70;;;;;;4996013;28;20029;-79
2021/12/08 08:26:28;;;;;;;11.77;1.87;;;5.70;96.60;;;;;;5012260;28;20022;-79
2021/12/08 08:28:53;;;;;;;10.40;1.13;;;5.80;96.70;;;;;;4996378;28;20026;-79
2021/12/08 08:31:30;;;;;;;14.03;2.47;;;5.80;96.50;;;;;;4981081;28;20434;-79
2021/12/08 08:33:57;;;;;;;6.50;1.20;;;5.80;96.40;;;;;;4996740;28;20109;-79
2021/12/08 08:36:26;;;;;;;8.20;1.27;;;5.90;96.30;;;;;;4995868;28;20091;-79
2021/12/08 08:39:03;;;;;;;11.83;2.23;;;5.90;96.30;;;;;;5013139;28;20025;-79
2021/12/08 08:41:44;;;;;;;10.37;1.47;;;5.90;96.20;;;;;;5033695;28;20436;-78
2021/12/08 08:44:18;;;;;;;11.90;1.87;;;6.00;96.20;;;;;;5015751;28;20025;-78
2021/12/08 08:46:46;;;;;;;11.63;1.47;;;5.90;96.20;;;;;;5009943;28;20024;-80
2021/12/08 08:49:20;;;;;;;12.33;1.30;;;5.90;96.10;;;;;;5014160;28;20018;-78
2021/12/08 08:52:07;;;;;;;14.52;2.17;;;6.00;96.00;;;;;;5013772;28;20049;-78
2021/12/08 08:54:38;;;;;;;10.87;1.40;;;5.90;95.70;;;;;;5023042;28;20465;-79
2021/12/08 08:57:12;;;;;;;7.53;1.00;;;6.00;95.60;;;;;;5002316;28;20187;-78
2021/12/08 08:59:45;;;;;;;10.25;1.38;;;6.00;95.50;;;;;;5013421;28;20022;-79
2021/12/08 09:02:22;;;;;;;10.52;1.20;;;6.00;95.50;;;;;;5006865;28;20017;-78
2021/12/08 09:04:54;;;;;;;14.37;1.60;;;6.00;95.40;;;;;;5023248;28;20087;-79
2021/12/08 09:07:31;;;;;;;7.10;1.40;;;6.00;95.10;;;;;;5024353;28;20029;-80
2021/12/08 09:10:03;;;;;;;9.37;1.53;;;5.90;95.20;;;;;;5016226;28;20021;-80
2021/12/08 09:12:35;;;;;;;7.83;1.30;;;5.90;95.10;;;;;;5033075;28;20029;-79
2021/12/08 09:15:14;;;;;;;6.50;1.20;;;6.00;94.80;;;;;;5025196;28;20036;-79
2021/12/08 09:17:51;;;;;;;9.17;1.37;;;6.00;94.70;;;;;;5013680;28;20049;-79
2021/12/08 09:20:56;;;;;;;6.87;1.53;;;6.00;94.60;;;;;;4996201;28;20030;-79
2021/12/08 09:23:37;;;;;;;8.37;1.10;;;6.10;94.40;;;;;;4996288;28;20095;-79
2021/12/08 09:26:10;;;;;;;10.20;1.10;;;6.30;94.40;;;;;;5014164;28;20017;-80
2021/12/08 09:28:44;;;;;;;7.40;1.13;;;6.30;94.20;;;;;;5015744;28;20343;-80
2021/12/08 09:31:22;;;;;;;4.95;1.27;;;6.60;94.40;;;;;;5033630;28;20143;-79
2021/12/08 09:33:55;;;;;;;5.23;1.00;;;6.90;94.00;;;;;;5015195;28;20021;-80
2021/12/08 09:36:30;;;;;;;7.37;1.17;;;7.30;94.40;;;;;;5012774;28;20033;-80
2021/12/08 09:39:46;;;;;;;6.03;0.80;;;7.80;93.90;;;;;;5013628;28;20060;-79
2021/12/08 09:42:17;;;;;;;10.63;0.97;;;8.30;93.50;;;;;;5005706;28;20061;-79
2021/12/08 09:44:49;;;;;;;8.90;1.10;;;8.90;92.90;;;;;;5023801;28;20022;-79
2021/12/08 09:47:16;;;;;;;5.00;0.80;;;9.40;92.70;;;;;;5032777;28;20025;-79
2021/12/08 09:49:47;;;;;;;6.20;0.75;;;9.90;91.70;;;;;;5033229;28;20032;-79
2021/12/08 09:52:15;;;;;;;7.32;0.73;;;10.30;91.50;;;;;;5015602;28;20160;-79
2021/12/08 09:54:41;;;;;;;9.50;1.00;;;10.80;90.80;;;;;;5006895;28;20026;-79
2021/12/08 09:57:12;;;;;;;8.40;1.08;;;11.20;89.70;;;;;;5013846;28;20496;-79
2021/12/08 09:59:45;;;;;;;9.07;1.00;;;11.60;86.80;;;;;;5032633;28;20049;-80
2021/12/08 10:02:19;;;;;;;4.80;0.82;;;12.00;84.30;;;;;;5032708;28;20108;-79
2021/12/08 10:04:45;;;;;;;4.13;0.70;;;12.30;82.00;;;;;;5005813;28;20454;-80
2021/12/08 10:07:12;;;;;;;3.90;0.80;;;12.20;79.50;;;;;;4995657;28;20038;-79
2021/12/08 10:09:38;;;;;;;6.97;0.80;;;12.00;76.70;;;;;;5019860;28;20018;-79
2021/12/08 10:12:05;;;;;;;5.63;0.82;;;11.60;74.80;;;;;;4998632;28;20075;-80
2021/12/08 10:14:31;;;;;;;4.10;0.77;;;11.30;74.70;;;;;;5022848;28;20092;-79
2021/12/08 10:16:56;;;;;;;5.15;1.02;;;11.00;75.70;;;;;;5006082;28;20466;-79
2021/12/08 10:19:22;;;;;;;5.65;1.08;;;10.70;74.50;;;;;;5006056;28;20033;-79
2021/12/08 10:21:48;;;;;;;5.55;0.88;;;10.70;75.00;;;;;;5021791;28;20018;-79
2021/12/08 10:24:20;;;;;;;4.75;0.88;;;10.90;77.40;;;;;;5004137;28;20501;-80
2021/12/08 10:26:49;;;;;;;6.32;0.65;;;11.30;77.30;;;;;;5032575;28;20026;-79
2021/12/08 10:29:15;;;;;;;8.07;1.00;;;11.60;75.30;;;;;;5014658;28;20028;-80
2021/12/08 10:31:41;;;;;;;4.00;0.90;;;11.70;74.80;;;;;;5015168;28;20018;-79
2021/12/08 10:36:55;;;;;;;6.00;0.75;;;11.90;70.70;;;;;;4995418;28;20041;-79
2021/12/08 10:39:23;;;;;;;6.15;0.90;;;11.80;71.30;;;;;;4995304;28;20022;-80
2021/12/08 10:41:54;;;;;;;5.80;0.98;;;11.80;71.20;;;;;;4995620;28;20018;-80
2021/12/08 10:44:56;;;;;;;8.75;1.00;;;11.90;71.40;;;;;;5023685;28;20510;-80
2021/12/08 10:47:28;;;;;;;5.03;0.68;;;12.00;71.80;;;;;;5053643;28;20021;-80
2021/12/08 10:55:22;;;;;;;3.45;0.60;;;13.00;69.90;;;;;;5021573;28;20389;-80
2021/12/08 10:57:53;;;;;;;2.88;0.70;;;13.30;68.70;;;;;;5017816;28;20137;-80
2021/12/08 11:00:39;;;;;;;4.72;1.02;;;13.50;68.20;;;;;;5035326;28;20369;-80
2021/12/08 11:03:12;;;;;;;2.13;0.60;;;13.60;66.70;;;;;;4996191;28;20033;-80
2021/12/08 11:05:48;;;;;;;6.07;0.80;;;13.70;66.20;;;;;;5017220;28;20453;-80
2021/12/08 11:08:19;;;;;;;7.80;0.82;;;13.70;65.00;;;;;;5002655;28;20017;-80
2021/12/08 11:10:50;;;;;;;6.10;0.68;;;13.50;65.20;;;;;;5007958;28;20033;-80
2021/12/08 11:13:19;;;;;;;5.95;0.90;;;13.50;65.50;;;;;;5022919;28;20026;-80
2021/12/08 11:15:46;;;;;;;4.55;1.05;;;13.40;64.30;;;;;;4998163;28;20026;-80
2021/12/08 11:18:14;;;;;;;4.85;0.82;;;13.30;63.50;;;;;;5025519;28;20076;-80
2021/12/08 11:20:44;;;;;;;5.80;0.90;;;13.10;63.80;;;;;;5026974;28;20032;-80
2021/12/08 11:23:14;;;;;;;6.40;1.42;;;12.80;64.50;;;;;;5026370;28;20088;-80
2021/12/08 11:25:46;;;;;;;5.47;0.98;;;12.60;64.40;;;;;;5025792;28;20026;-79
2021/12/08 11:28:17;;;;;;;8.00;1.05;;;12.40;64.90;;;;;;5015072;28;20025;-80
2021/12/08 11:30:43;;;;;;;7.82;0.95;;;12.20;65.30;;;;;;5006902;28;20513;-80
2021/12/08 11:33:16;;;;;;;6.45;0.63;;;12.00;65.60;;;;;;5011598;28;20109;-79
2021/12/08 11:35:42;;;;;;;4.38;0.63;;;11.80;66.60;;;;;;5000811;28;20095;-80
2021/12/08 11:38:07;;;;;;;5.68;0.90;;;11.70;66.80;;;;;;5026135;28;20454;-79
2021/12/08 11:40:37;;;;;;;6.57;0.98;;;11.60;66.90;;;;;;5007795;28;20033;-80
2021/12/08 11:43:03;;;;;;;8.18;0.98;;;11.30;67.00;;;;;;5029707;28;20067;-80
2021/12/08 11:45:39;;;;;;;6.75;1.10;;;10.90;67.50;;;;;;5027807;28;20036;-79
2021/12/08 11:48:20;;;;;;;7.87;1.00;;;10.60;68.60;;;;;;5016592;28;20470;-79
2021/12/08 11:50:46;;;;;;;6.47;1.10;;;10.30;69.40;;;;;;5022333;28;20033;-80
2021/12/08 11:53:21;;;;;;;7.33;1.23;;;10.10;70.30;;;;;;5017064;28;20029;-79
2021/12/08 11:55:46;;;;;;;7.30;1.00;;;9.90;70.90;;;;;;5033136;28;20057;-79
2021/12/08 11:58:12;;;;;;;6.13;1.10;;;9.70;71.80;;;;;;5033307;28;20041;-80
2021/12/08 12:00:41;;;;;;;8.47;0.83;;;9.50;72.40;;;;;;5012836;28;20545;-80
2021/12/08 12:03:14;;;;;;;7.60;1.10;;;9.40;73.10;;;;;;5017444;28;20158;-80
2021/12/08 12:05:42;;;;;;;8.10;1.47;;;9.30;73.70;;;;;;5017697;28;20026;-79
2021/12/08 12:08:10;;;;;;;8.20;1.20;;;9.20;74.10;;;;;;5034326;28;20369;-79
2021/12/08 12:10:41;;;;;;;7.93;1.30;;;9.10;74.60;;;;;;5026213;28;20461;-80
2021/12/08 12:13:08;;;;;;;7.83;1.87;;;9.00;75.10;;;;;;5034087;28;20032;-79
2021/12/08 12:15:40;;;;;;;7.57;1.23;;;8.90;75.60;;;;;;5034163;28;20116;-79
2021/12/08 12:18:06;;;;;;;4.10;0.80;;;8.90;75.90;;;;;;5016030;28;20116;-80
2021/12/08 12:20:52;;;;;;;6.93;1.07;;;8.90;76.20;;;;;;5014755;28;20175;-79
2021/12/08 12:23:42;;;;;;;8.40;1.37;;;8.80;76.50;;;;;;5025677;28;20646;-80
2021/12/08 12:26:17;;;;;;;9.17;1.10;;;8.70;77.00;;;;;;5005128;28;20044;-79
2021/12/08 12:29:20;;;;;;;8.17;1.50;;;8.70;77.40;;;;;;5032964;28;20026;-81
2021/12/08 12:32:02;;;;;;;7.50;1.07;;;8.60;77.70;;;;;;5034409;28;20408;-80
2021/12/08 12:34:32;;;;;;;8.47;1.30;;;8.60;77.90;;;;;;5033665;28;20100;-80
2021/12/08 12:37:03;;;;;;;8.97;1.30;;;8.60;78.20;;;;;;5033832;28;20120;-81
2021/12/08 12:39:29;;;;;;;6.50;1.13;;;8.60;78.40;;;;;;4993754;28;20029;-81
2021/12/08 12:42:17;;;;;;;8.97;1.00;;;8.50;78.60;;;;;;5004588;28;20034;-81
2021/12/08 12:45:02;;;;;;;9.67;1.30;;;8.50;79.00;;;;;;5031991;28;20028;-80
2021/12/08 12:47:30;;;;;;;6.07;1.25;;;8.50;79.30;;;;;;5023202;28;20461;-81
2021/12/08 12:50:21;;;;;;;8.33;1.40;;;8.40;79.20;;;;;;5013872;28;20480;-81
2021/12/08 12:52:52;;;;;;;5.47;1.13;;;8.40;79.80;;;;;;5026282;28;20049;-86
2021/12/08 12:55:26;;;;;;;4.17;1.27;;;8.30;80.00;;;;;;5015026;28;20033;-86
2021/12/08 12:58:08;;;;;;;2.75;0.93;;;8.40;80.20;;;;;;5009205;28;20038;-87
2021/12/08 13:00:42;;;;;;;7.80;1.10;;;8.30;80.40;;;;;;5005619;28;20421;-86
2021/12/08 13:03:09;;;;;;;7.93;1.10;;;8.40;80.40;;;;;;5016582;28;20017;-87
2021/12/08 13:05:50;;;;;;;6.60;1.30;;;8.40;80.30;;;;;;4996375;28;20450;-85
2021/12/08 13:08:41;;;;;;;4.57;1.10;;;8.50;80.50;;;;;;5024229;28;20018;-89
2021/12/08 13:11:58;;;;;;;5.00;1.00;;;8.60;80.60;;;;;;5025279;28;20061;-86
2021/12/08 13:14:27;;;;;;;9.00;1.30;;;8.70;80.30;;;;;;5002949;28;20030;-86
2021/12/08 13:17:21;;;;;;;7.87;1.43;;;8.60;79.60;;;;;;5017201;28;20029;-85
2021/12/08 13:19:53;;;;;;;5.28;1.38;;;8.70;80.00;;;;;;4995026;28;20042;-86
2021/12/08 13:22:45;;;;;;;5.40;1.00;;;9.20;81.70;;;;;;5014409;28;20534;-86
2021/12/08 13:28:52;;;;;;;7.75;1.58;;;10.20;79.10;;;;;;5021477;28;20034;-86
2021/12/08 13:31:37;;;;;;;5.22;1.23;;;10.70;78.30;;;;;;5004275;28;20018;-86
2021/12/08 13:34:08;;;;;;;4.93;1.00;;;11.20;76.40;;;;;;4998951;28;20075;-84
2021/12/08 13:36:37;;;;;;;5.18;1.00;;;11.50;74.40;;;;;;4992583;28;20535;-86
2021/12/08 13:39:07;;;;;;;6.65;1.05;;;11.40;72.70;;;;;;5006402;28;20469;-85
2021/12/08 13:41:37;;;;;;;6.10;1.30;;;11.20;70.90;;;;;;5004876;28;20030;-86
2021/12/08 13:44:58;;;;;;;4.93;0.82;;;10.70;71.10;;;;;;5023898;28;20056;-86
2021/12/08 13:47:29;;;;;;;9.47;1.03;;;10.40;72.50;;;;;;5000177;28;20466;-85
2021/12/08 13:50:06;;;;;;;4.40;0.97;;;10.30;74.10;;;;;;5022007;28;20453;-85
2021/12/08 13:52:34;;;;;;;5.90;0.80;;;10.50;74.40;;;;;;5022551;28;20049;-87
2021/12/08 13:55:08;;;;;;;5.45;0.73;;;10.80;73.80;;;;;;5022123;28;20049;-85
2021/12/08 13:57:34;;;;;;;;;;;11.10;73.20;;;;;;5005376;28;20057;-85
2021/12/08 14:00:12;;;;;;;7.68;0.90;;;11.30;72.30;;;;;;5033609;28;19955;-85
2021/12/08 14:02:38;;;;;;;6.50;0.82;;;11.50;71.40;;;;;;5009434;28;20076;-86
2021/12/08 14:05:11;;;;;;;5.28;0.80;;;11.60;70.70;;;;;;5016677;28;20427;-84
2021/12/08 14:07:44;;;;;;;5.68;0.65;;;11.60;70.10;;;;;;5012498;28;20455;-85
2021/12/08 14:10:14;;;;;;;4.43;0.88;;;11.50;69.60;;;;;;5014014;28;20014;-86
2021/12/08 14:12:41;;;;;;;10.30;1.60;;;11.30;69.20;;;;;;4995496;28;20351;-86
2021/12/08 14:15:07;;;;;;;6.50;1.40;;;11.00;69.30;;;;;;4995742;28;20128;-86
2021/12/08 14:17:33;;;;;;;9.17;1.60;;;10.70;70.00;;;;;;5013951;28;20026;-86
2021/12/08 14:19:59;;;;;;;7.23;0.90;;;10.50;70.90;;;;;;4994657;28;20574;-86